sensor_id;sensor_type;location;lat;lon;timestamp;temperature;humidity
74458;SHT31;62896;51.032;3.712;2023-05-08T00:03:10;14;97
74458;SHT31;62896;51.032;3.712;2023-05-08T00:06:30;14;96
74458;SHT31;62896;51.032;3.712;2023-05-08T00:09:50;14;96
74458;SHT31;62896;51.032;3.712;2023-05-08T00:13:10;14;96
74458;SHT31;62896;51.032;3.712;2023-05-08T00:16:30;14;96
74458;SHT31;62896;51.032;3.712;2023-05-08T00:19:50;14;96
74458;SHT31;62896;51.032;3.712;2023-05-08T00:23:10;14;96
74458;SHT31;62896;51.032;3.712;2023-05-08T00:26:30;13.8;97
74458;SHT31;62896;51.032;3.712;2023-05-08T00:29:50;13.8;97
74458;SHT31;62896;51.032;3.712;2023-05-08T00:33:10;13.8;97
74458;SHT31;62896;51.032;3.712;2023-05-08T00:36:30;13.7;97
74458;SHT31;62896;51.032;3.712;2023-05-08T00:39:50;13.7;97
74458;SHT31;62896;51.032;3.712;2023-05-08T00:43:10;13.7;97
74458;SHT31;62896;51.032;3.712;2023-05-08T00:46:30;13.7;96
74458;SHT31;62896;51.032;3.712;2023-05-08T00:49:50;13.7;96
74458;SHT31;62896;51.032;3.712;2023-05-08T00:53:10;13.7;96
74458;SHT31;62896;51.032;3.712;2023-05-08T00:56:30;13.5;97
74458;SHT31;62896;51.032;3.712;2023-05-08T00:59:50;13.5;97
74458;SHT31;62896;51.032;3.712;2023-05-08T01:03:10;13.5;97
74458;SHT31;62896;51.032;3.712;2023-05-08T01:06:30;13.5;97
74458;SHT31;62896;51.032;3.712;2023-05-08T01:09:50;13.5;97
74458;SHT31;62896;51.032;3.712;2023-05-08T01:13:15;13.5;97
74458;SHT31;62896;51.032;3.712;2023-05-08T01:16:33;13.5;97
74458;SHT31;62896;51.032;3.712;2023-05-08T01:19:54;13.5;97
74458;SHT31;62896;51.032;3.712;2023-05-08T01:23:17;13.5;97
74458;SHT31;62896;51.032;3.712;2023-05-08T01:26:40;13.3;97
74458;SHT31;62896;51.032;3.712;2023-05-08T01:29:58;13.3;97
74458;SHT31;62896;51.032;3.712;2023-05-08T01:33:12;13.3;97
74458;SHT31;62896;51.032;3.712;2023-05-08T01:36:33;13.1;98
74458;SHT31;62896;51.032;3.712;2023-05-08T01:39:53;13.1;98
74458;SHT31;62896;51.032;3.712;2023-05-08T01:43:12;13.1;98
74458;SHT31;62896;51.032;3.712;2023-05-08T01:46:31;12.9;98
74458;SHT31;62896;51.032;3.712;2023-05-08T01:49:53;12.9;98
74458;SHT31;62896;51.032;3.712;2023-05-08T01:53:12;12.9;98
74458;SHT31;62896;51.032;3.712;2023-05-08T01:56:30;12.8;98
74458;SHT31;62896;51.032;3.712;2023-05-08T01:59:50;12.8;98
74458;SHT31;62896;51.032;3.712;2023-05-08T02:03:10;12.8;98
74458;SHT31;62896;51.032;3.712;2023-05-08T02:06:30;12.7;99
74458;SHT31;62896;51.032;3.712;2023-05-08T02:09:50;12.7;99
74458;SHT31;62896;51.032;3.712;2023-05-08T02:13:10;12.7;99
74458;SHT31;62896;51.032;3.712;2023-05-08T02:16:30;12.7;99
74458;SHT31;62896;51.032;3.712;2023-05-08T02:19:50;12.7;99
74458;SHT31;62896;51.032;3.712;2023-05-08T02:23:10;12.7;99
74458;SHT31;62896;51.032;3.712;2023-05-08T02:26:30;12.7;99
74458;SHT31;62896;51.032;3.712;2023-05-08T02:29:50;12.7;99
74458;SHT31;62896;51.032;3.712;2023-05-08T02:33:10;12.7;99
74458;SHT31;62896;51.032;3.712;2023-05-08T02:36:30;12.8;99
74458;SHT31;62896;51.032;3.712;2023-05-08T02:39:50;12.8;99
74458;SHT31;62896;51.032;3.712;2023-05-08T02:43:10;12.8;99
74458;SHT31;62896;51.032;3.712;2023-05-08T02:46:33;12.8;99
74458;SHT31;62896;51.032;3.712;2023-05-08T02:49:51;12.8;99
74458;SHT31;62896;51.032;3.712;2023-05-08T02:53:11;12.8;99
74458;SHT31;62896;51.032;3.712;2023-05-08T02:56:33;12.7;99
74458;SHT31;62896;51.032;3.712;2023-05-08T02:59:53;12.7;99
74458;SHT31;62896;51.032;3.712;2023-05-08T03:03:11;12.7;99
74458;SHT31;62896;51.032;3.712;2023-05-08T03:06:32;12.8;100
74458;SHT31;62896;51.032;3.712;2023-05-08T03:09:54;12.8;100
74458;SHT31;62896;51.032;3.712;2023-05-08T03:13:10;12.8;100
74458;SHT31;62896;51.032;3.712;2023-05-08T03:16:30;12.8;100
74458;SHT31;62896;51.032;3.712;2023-05-08T03:19:51;12.8;100
74458;SHT31;62896;51.032;3.712;2023-05-08T03:23:11;12.8;100
74458;SHT31;62896;51.032;3.712;2023-05-08T03:26:30;12.9;100
74458;SHT31;62896;51.032;3.712;2023-05-08T03:29:50;12.9;100
74458;SHT31;62896;51.032;3.712;2023-05-08T03:33:10;12.9;100
74458;SHT31;62896;51.032;3.712;2023-05-08T03:36:30;12.9;99
74458;SHT31;62896;51.032;3.712;2023-05-08T03:39:50;12.9;99
74458;SHT31;62896;51.032;3.712;2023-05-08T03:43:10;12.9;99
74458;SHT31;62896;51.032;3.712;2023-05-08T03:46:30;12.9;99
74458;SHT31;62896;51.032;3.712;2023-05-08T03:49:50;12.9;99
74458;SHT31;62896;51.032;3.712;2023-05-08T03:53:10;12.9;99
74458;SHT31;62896;51.032;3.712;2023-05-08T03:56:30;12.9;99
74458;SHT31;62896;51.032;3.712;2023-05-08T03:59:51;12.9;99
74458;SHT31;62896;51.032;3.712;2023-05-08T04:03:13;12.9;99
74458;SHT31;62896;51.032;3.712;2023-05-08T04:06:32;12.8;99
74458;SHT31;62896;51.032;3.712;2023-05-08T04:09:53;12.8;99
74458;SHT31;62896;51.032;3.712;2023-05-08T04:13:11;12.8;99
74458;SHT31;62896;51.032;3.712;2023-05-08T04:16:31;12.7;99
74458;SHT31;62896;51.032;3.712;2023-05-08T04:19:51;12.7;99
74458;SHT31;62896;51.032;3.712;2023-05-08T04:23:10;12.7;99
74458;SHT31;62896;51.032;3.712;2023-05-08T04:26:30;12.7;100
74458;SHT31;62896;51.032;3.712;2023-05-08T04:29:50;12.7;100
74458;SHT31;62896;51.032;3.712;2023-05-08T04:33:10;12.7;100
74458;SHT31;62896;51.032;3.712;2023-05-08T04:36:30;12.7;100
74458;SHT31;62896;51.032;3.712;2023-05-08T04:39:50;12.7;100
74458;SHT31;62896;51.032;3.712;2023-05-08T04:43:10;12.7;100
74458;SHT31;62896;51.032;3.712;2023-05-08T04:46:30;12.8;100
74458;SHT31;62896;51.032;3.712;2023-05-08T04:49:50;12.8;100
74458;SHT31;62896;51.032;3.712;2023-05-08T04:53:10;12.8;100
74458;SHT31;62896;51.032;3.712;2023-05-08T04:56:30;12.8;99
74458;SHT31;62896;51.032;3.712;2023-05-08T04:59:50;12.8;99
74458;SHT31;62896;51.032;3.712;2023-05-08T05:03:10;12.8;99
74458;SHT31;62896;51.032;3.712;2023-05-08T05:06:30;12.8;99
74458;SHT31;62896;51.032;3.712;2023-05-08T05:09:50;12.8;99
74458;SHT31;62896;51.032;3.712;2023-05-08T05:13:10;12.8;99
74458;SHT31;62896;51.032;3.712;2023-05-08T05:16:30;12.7;99
74458;SHT31;62896;51.032;3.712;2023-05-08T05:19:50;12.7;99
74458;SHT31;62896;51.032;3.712;2023-05-08T05:23:10;12.7;99
74458;SHT31;62896;51.032;3.712;2023-05-08T05:26:30;12.8;100
74458;SHT31;62896;51.032;3.712;2023-05-08T05:29:50;12.8;100
74458;SHT31;62896;51.032;3.712;2023-05-08T05:33:10;12.8;100
74458;SHT31;62896;51.032;3.712;2023-05-08T05:36:30;12.9;100
74458;SHT31;62896;51.032;3.712;2023-05-08T05:39:50;12.9;100
74458;SHT31;62896;51.032;3.712;2023-05-08T05:43:11;12.9;100
74458;SHT31;62896;51.032;3.712;2023-05-08T05:46:30;13;99
74458;SHT31;62896;51.032;3.712;2023-05-08T05:49:50;13;99
74458;SHT31;62896;51.032;3.712;2023-05-08T05:53:10;13;99
74458;SHT31;62896;51.032;3.712;2023-05-08T05:56:30;13;99
74458;SHT31;62896;51.032;3.712;2023-05-08T05:59:50;13;99
74458;SHT31;62896;51.032;3.712;2023-05-08T06:03:10;13;99
74458;SHT31;62896;51.032;3.712;2023-05-08T06:06:30;13.1;99
74458;SHT31;62896;51.032;3.712;2023-05-08T06:09:50;13.1;99
74458;SHT31;62896;51.032;3.712;2023-05-08T06:13:10;13.1;99
74458;SHT31;62896;51.032;3.712;2023-05-08T06:16:30;13.2;98
74458;SHT31;62896;51.032;3.712;2023-05-08T06:19:51;13.2;98
74458;SHT31;62896;51.032;3.712;2023-05-08T06:23:10;13.2;98
74458;SHT31;62896;51.032;3.712;2023-05-08T06:26:30;13.2;98
74458;SHT31;62896;51.032;3.712;2023-05-08T06:29:50;13.2;98
74458;SHT31;62896;51.032;3.712;2023-05-08T06:33:10;13.2;98
74458;SHT31;62896;51.032;3.712;2023-05-08T06:36:30;13.3;98
74458;SHT31;62896;51.032;3.712;2023-05-08T06:39:50;13.3;98
74458;SHT31;62896;51.032;3.712;2023-05-08T06:43:11;13.3;98
74458;SHT31;62896;51.032;3.712;2023-05-08T06:46:30;13.5;98
74458;SHT31;62896;51.032;3.712;2023-05-08T06:49:50;13.5;98
74458;SHT31;62896;51.032;3.712;2023-05-08T06:53:10;13.5;98
74458;SHT31;62896;51.032;3.712;2023-05-08T06:56:30;13.5;97
74458;SHT31;62896;51.032;3.712;2023-05-08T06:59:50;13.5;97
74458;SHT31;62896;51.032;3.712;2023-05-08T07:03:10;13.5;97
74458;SHT31;62896;51.032;3.712;2023-05-08T07:06:30;13.5;97
74458;SHT31;62896;51.032;3.712;2023-05-08T07:09:50;13.5;97
74458;SHT31;62896;51.032;3.712;2023-05-08T07:13:10;13.5;97
74458;SHT31;62896;51.032;3.712;2023-05-08T07:16:30;13.5;97
74458;SHT31;62896;51.032;3.712;2023-05-08T07:19:50;13.5;97
74458;SHT31;62896;51.032;3.712;2023-05-08T07:23:10;13.5;97
74458;SHT31;62896;51.032;3.712;2023-05-08T07:26:30;13.6;97
74458;SHT31;62896;51.032;3.712;2023-05-08T07:29:50;13.6;97
74458;SHT31;62896;51.032;3.712;2023-05-08T07:33:10;13.6;97
74458;SHT31;62896;51.032;3.712;2023-05-08T07:36:30;13.7;97
74458;SHT31;62896;51.032;3.712;2023-05-08T07:39:50;13.7;97
74458;SHT31;62896;51.032;3.712;2023-05-08T07:43:10;13.7;97
74458;SHT31;62896;51.032;3.712;2023-05-08T07:46:30;13.7;96
74458;SHT31;62896;51.032;3.712;2023-05-08T07:49:50;13.7;96
74458;SHT31;62896;51.032;3.712;2023-05-08T07:53:10;13.7;96
74458;SHT31;62896;51.032;3.712;2023-05-08T07:56:30;13.7;96
74458;SHT31;62896;51.032;3.712;2023-05-08T07:59:50;13.7;96
74458;SHT31;62896;51.032;3.712;2023-05-08T08:03:10;13.7;96
74458;SHT31;62896;51.032;3.712;2023-05-08T08:06:30;13.8;95
74458;SHT31;62896;51.032;3.712;2023-05-08T08:09:50;13.8;95
74458;SHT31;62896;51.032;3.712;2023-05-08T08:13:10;13.8;95
74458;SHT31;62896;51.032;3.712;2023-05-08T08:16:30;13.8;94
74458;SHT31;62896;51.032;3.712;2023-05-08T08:19:50;13.8;94
74458;SHT31;62896;51.032;3.712;2023-05-08T08:23:10;13.8;94
74458;SHT31;62896;51.032;3.712;2023-05-08T08:26:30;13.9;94
74458;SHT31;62896;51.032;3.712;2023-05-08T08:29:50;13.9;94
74458;SHT31;62896;51.032;3.712;2023-05-08T08:33:10;13.9;94
74458;SHT31;62896;51.032;3.712;2023-05-08T08:36:31;13.9;93
74458;SHT31;62896;51.032;3.712;2023-05-08T08:39:51;13.9;93
74458;SHT31;62896;51.032;3.712;2023-05-08T08:43:10;13.9;93
74458;SHT31;62896;51.032;3.712;2023-05-08T08:46:31;14.1;93
74458;SHT31;62896;51.032;3.712;2023-05-08T08:49:50;14.1;93
74458;SHT31;62896;51.032;3.712;2023-05-08T08:53:13;14.1;93
74458;SHT31;62896;51.032;3.712;2023-05-08T08:56:30;14.1;92
74458;SHT31;62896;51.032;3.712;2023-05-08T08:59:50;14.1;92
74458;SHT31;62896;51.032;3.712;2023-05-08T09:03:10;14.1;92
74458;SHT31;62896;51.032;3.712;2023-05-08T09:06:32;14.1;92
74458;SHT31;62896;51.032;3.712;2023-05-08T09:09:50;14.1;92
74458;SHT31;62896;51.032;3.712;2023-05-08T09:13:10;14.1;92
74458;SHT31;62896;51.032;3.712;2023-05-08T09:16:30;14.2;91
74458;SHT31;62896;51.032;3.712;2023-05-08T09:19:50;14.2;91
74458;SHT31;62896;51.032;3.712;2023-05-08T09:23:11;14.2;91
74458;SHT31;62896;51.032;3.712;2023-05-08T09:26:32;14.4;91
74458;SHT31;62896;51.032;3.712;2023-05-08T09:29:58;14.4;91
74458;SHT31;62896;51.032;3.712;2023-05-08T09:33:11;14.4;91
74458;SHT31;62896;51.032;3.712;2023-05-08T09:36:31;14.4;90
74458;SHT31;62896;51.032;3.712;2023-05-08T09:39:51;14.4;90
74458;SHT31;62896;51.032;3.712;2023-05-08T09:43:11;14.4;90
74458;SHT31;62896;51.032;3.712;2023-05-08T09:46:31;14.6;90
74458;SHT31;62896;51.032;3.712;2023-05-08T09:49:58;14.6;90
74458;SHT31;62896;51.032;3.712;2023-05-08T09:53:11;14.6;90
74458;SHT31;62896;51.032;3.712;2023-05-08T09:56:32;14.7;89
74458;SHT31;62896;51.032;3.712;2023-05-08T09:59:51;14.7;89
74458;SHT31;62896;51.032;3.712;2023-05-08T10:03:11;14.7;89
74458;SHT31;62896;51.032;3.712;2023-05-08T10:06:31;14.6;89
74458;SHT31;62896;51.032;3.712;2023-05-08T10:09:56;14.6;89
74458;SHT31;62896;51.032;3.712;2023-05-08T10:13:11;14.6;89
74458;SHT31;62896;51.032;3.712;2023-05-08T10:16:31;14.6;90
74458;SHT31;62896;51.032;3.712;2023-05-08T10:19:51;14.6;90
74458;SHT31;62896;51.032;3.712;2023-05-08T10:23:13;14.6;90
74458;SHT31;62896;51.032;3.712;2023-05-08T10:26:31;14.8;89
74458;SHT31;62896;51.032;3.712;2023-05-08T10:29:51;14.8;89
74458;SHT31;62896;51.032;3.712;2023-05-08T10:33:11;14.8;89
74458;SHT31;62896;51.032;3.712;2023-05-08T10:36:31;14.7;89
74458;SHT31;62896;51.032;3.712;2023-05-08T10:39:51;14.7;89
74458;SHT31;62896;51.032;3.712;2023-05-08T10:43:11;14.7;89
74458;SHT31;62896;51.032;3.712;2023-05-08T10:46:33;14.8;89
74458;SHT31;62896;51.032;3.712;2023-05-08T10:49:54;14.8;89
74458;SHT31;62896;51.032;3.712;2023-05-08T10:53:12;14.8;89
74458;SHT31;62896;51.032;3.712;2023-05-08T10:56:31;15;89
74458;SHT31;62896;51.032;3.712;2023-05-08T10:59:51;15;89
74458;SHT31;62896;51.032;3.712;2023-05-08T11:03:11;15;89
74458;SHT31;62896;51.032;3.712;2023-05-08T11:06:46;15.2;88
74458;SHT31;62896;51.032;3.712;2023-05-08T11:09:51;15.2;88
74458;SHT31;62896;51.032;3.712;2023-05-08T11:13:11;15.2;88
74458;SHT31;62896;51.032;3.712;2023-05-08T11:17:35;15.5;86
74458;SHT31;62896;51.032;3.712;2023-05-08T11:19:54;15.5;86
74458;SHT31;62896;51.032;3.712;2023-05-08T11:23:20;15.5;86
74458;SHT31;62896;51.032;3.712;2023-05-08T11:26:37;15.6;85
74458;SHT31;62896;51.032;3.712;2023-05-08T11:30:16;15.6;85
74458;SHT31;62896;51.032;3.712;2023-05-08T11:33:14;15.6;85
74458;SHT31;62896;51.032;3.712;2023-05-08T11:36:31;15.7;85
74458;SHT31;62896;51.032;3.712;2023-05-08T11:39:51;15.7;85
74458;SHT31;62896;51.032;3.712;2023-05-08T11:43:19;15.7;85
74458;SHT31;62896;51.032;3.712;2023-05-08T11:46:34;16.1;84
74458;SHT31;62896;51.032;3.712;2023-05-08T11:49:52;16.1;84
74458;SHT31;62896;51.032;3.712;2023-05-08T11:53:11;16.1;84
74458;SHT31;62896;51.032;3.712;2023-05-08T11:56:31;16;83
74458;SHT31;62896;51.032;3.712;2023-05-08T11:59:51;16;83
74458;SHT31;62896;51.032;3.712;2023-05-08T12:03:11;16;83
74458;SHT31;62896;51.032;3.712;2023-05-08T12:06:31;16;84
74458;SHT31;62896;51.032;3.712;2023-05-08T12:09:51;16;84
74458;SHT31;62896;51.032;3.712;2023-05-08T12:13:14;16;84
74458;SHT31;62896;51.032;3.712;2023-05-08T12:16:33;15.9;84
74458;SHT31;62896;51.032;3.712;2023-05-08T12:19:53;15.9;84
74458;SHT31;62896;51.032;3.712;2023-05-08T12:23:11;15.9;84
74458;SHT31;62896;51.032;3.712;2023-05-08T12:26:33;15.8;84
74458;SHT31;62896;51.032;3.712;2023-05-08T12:29:51;15.8;84
74458;SHT31;62896;51.032;3.712;2023-05-08T12:33:11;15.8;84
74458;SHT31;62896;51.032;3.712;2023-05-08T12:36:32;15.9;84
74458;SHT31;62896;51.032;3.712;2023-05-08T12:39:51;15.9;84
74458;SHT31;62896;51.032;3.712;2023-05-08T12:43:11;15.9;84
74458;SHT31;62896;51.032;3.712;2023-05-08T12:46:31;15.7;85
74458;SHT31;62896;51.032;3.712;2023-05-08T12:49:51;15.7;85
74458;SHT31;62896;51.032;3.712;2023-05-08T12:53:11;15.7;85
74458;SHT31;62896;51.032;3.712;2023-05-08T12:56:31;15.6;85
74458;SHT31;62896;51.032;3.712;2023-05-08T12:59:51;15.6;85
74458;SHT31;62896;51.032;3.712;2023-05-08T13:03:11;15.6;85
74458;SHT31;62896;51.032;3.712;2023-05-08T13:06:31;15.8;84
74458;SHT31;62896;51.032;3.712;2023-05-08T13:09:54;15.8;84
74458;SHT31;62896;51.032;3.712;2023-05-08T13:13:11;15.8;84
74458;SHT31;62896;51.032;3.712;2023-05-08T13:16:40;16.1;83
74458;SHT31;62896;51.032;3.712;2023-05-08T13:19:51;16.1;83
74458;SHT31;62896;51.032;3.712;2023-05-08T13:23:11;16.1;83
74458;SHT31;62896;51.032;3.712;2023-05-08T13:26:31;16.5;81
74458;SHT31;62896;51.032;3.712;2023-05-08T13:29:51;16.5;81
74458;SHT31;62896;51.032;3.712;2023-05-08T13:33:11;16.5;81
74458;SHT31;62896;51.032;3.712;2023-05-08T13:36:31;17;80
74458;SHT31;62896;51.032;3.712;2023-05-08T13:39:51;17;80
74458;SHT31;62896;51.032;3.712;2023-05-08T13:43:11;17;80
74458;SHT31;62896;51.032;3.712;2023-05-08T13:46:31;17.3;78
74458;SHT31;62896;51.032;3.712;2023-05-08T13:49:51;17.3;78
74458;SHT31;62896;51.032;3.712;2023-05-08T13:53:11;17.3;78
74458;SHT31;62896;51.032;3.712;2023-05-08T13:56:31;17.6;78
74458;SHT31;62896;51.032;3.712;2023-05-08T13:59:51;17.6;78
74458;SHT31;62896;51.032;3.712;2023-05-08T14:03:11;17.6;78
74458;SHT31;62896;51.032;3.712;2023-05-08T14:06:31;17.6;77
74458;SHT31;62896;51.032;3.712;2023-05-08T14:09:51;17.6;77
74458;SHT31;62896;51.032;3.712;2023-05-08T14:13:11;17.6;77
74458;SHT31;62896;51.032;3.712;2023-05-08T14:16:31;17.4;78
74458;SHT31;62896;51.032;3.712;2023-05-08T14:19:51;17.4;78
74458;SHT31;62896;51.032;3.712;2023-05-08T14:23:11;17.4;78
74458;SHT31;62896;51.032;3.712;2023-05-08T14:26:31;17.7;78
74458;SHT31;62896;51.032;3.712;2023-05-08T14:29:51;17.7;78
74458;SHT31;62896;51.032;3.712;2023-05-08T14:33:11;17.7;78
74458;SHT31;62896;51.032;3.712;2023-05-08T14:36:31;18;77
74458;SHT31;62896;51.032;3.712;2023-05-08T14:39:51;18;77
74458;SHT31;62896;51.032;3.712;2023-05-08T14:43:11;18;77
74458;SHT31;62896;51.032;3.712;2023-05-08T14:46:31;18;76
74458;SHT31;62896;51.032;3.712;2023-05-08T14:49:51;18;76
74458;SHT31;62896;51.032;3.712;2023-05-08T14:53:11;18;76
74458;SHT31;62896;51.032;3.712;2023-05-08T14:56:31;18.8;74
74458;SHT31;62896;51.032;3.712;2023-05-08T14:59:51;18.8;74
74458;SHT31;62896;51.032;3.712;2023-05-08T15:03:11;18.8;74
74458;SHT31;62896;51.032;3.712;2023-05-08T15:06:31;18.9;72
74458;SHT31;62896;51.032;3.712;2023-05-08T15:09:51;18.9;72
74458;SHT31;62896;51.032;3.712;2023-05-08T15:13:11;18.9;72
74458;SHT31;62896;51.032;3.712;2023-05-08T15:16:31;18.6;73
74458;SHT31;62896;51.032;3.712;2023-05-08T15:19:51;18.6;73
74458;SHT31;62896;51.032;3.712;2023-05-08T15:23:11;18.6;73
74458;SHT31;62896;51.032;3.712;2023-05-08T15:26:31;18.2;74
74458;SHT31;62896;51.032;3.712;2023-05-08T15:29:51;18.2;74
74458;SHT31;62896;51.032;3.712;2023-05-08T15:33:11;18.2;74
74458;SHT31;62896;51.032;3.712;2023-05-08T15:36:31;18.1;75
74458;SHT31;62896;51.032;3.712;2023-05-08T15:39:51;18.1;75
74458;SHT31;62896;51.032;3.712;2023-05-08T15:43:11;18.1;75
74458;SHT31;62896;51.032;3.712;2023-05-08T15:46:31;17.9;75
74458;SHT31;62896;51.032;3.712;2023-05-08T15:49:51;17.9;75
74458;SHT31;62896;51.032;3.712;2023-05-08T15:53:11;17.9;75
74458;SHT31;62896;51.032;3.712;2023-05-08T15:56:31;17.5;76
74458;SHT31;62896;51.032;3.712;2023-05-08T15:59:51;17.5;76
74458;SHT31;62896;51.032;3.712;2023-05-08T16:03:11;17.5;76
74458;SHT31;62896;51.032;3.712;2023-05-08T16:06:31;17.7;76
74458;SHT31;62896;51.032;3.712;2023-05-08T16:09:51;17.7;76
74458;SHT31;62896;51.032;3.712;2023-05-08T16:13:11;17.7;76
74458;SHT31;62896;51.032;3.712;2023-05-08T16:16:31;18.1;74
74458;SHT31;62896;51.032;3.712;2023-05-08T16:19:51;18.1;74
74458;SHT31;62896;51.032;3.712;2023-05-08T16:23:11;18.1;74
74458;SHT31;62896;51.032;3.712;2023-05-08T16:26:31;17.9;74
74458;SHT31;62896;51.032;3.712;2023-05-08T16:29:51;17.9;74
74458;SHT31;62896;51.032;3.712;2023-05-08T16:33:11;17.9;74
74458;SHT31;62896;51.032;3.712;2023-05-08T16:36:31;17.6;76
74458;SHT31;62896;51.032;3.712;2023-05-08T16:39:51;17.6;76
74458;SHT31;62896;51.032;3.712;2023-05-08T16:43:11;17.6;76
74458;SHT31;62896;51.032;3.712;2023-05-08T16:46:31;17.5;76
74458;SHT31;62896;51.032;3.712;2023-05-08T16:49:51;17.5;76
74458;SHT31;62896;51.032;3.712;2023-05-08T16:53:11;17.5;76
74458;SHT31;62896;51.032;3.712;2023-05-08T16:56:31;17.7;76
74458;SHT31;62896;51.032;3.712;2023-05-08T16:59:51;17.7;76
74458;SHT31;62896;51.032;3.712;2023-05-08T17:03:11;17.7;76
74458;SHT31;62896;51.032;3.712;2023-05-08T17:06:31;17.7;75
74458;SHT31;62896;51.032;3.712;2023-05-08T17:09:54;17.7;75
74458;SHT31;62896;51.032;3.712;2023-05-08T17:13:11;17.7;75
74458;SHT31;62896;51.032;3.712;2023-05-08T17:16:31;17.7;74
74458;SHT31;62896;51.032;3.712;2023-05-08T17:19:51;17.7;74
74458;SHT31;62896;51.032;3.712;2023-05-08T17:23:11;17.7;74
74458;SHT31;62896;51.032;3.712;2023-05-08T17:26:31;17.8;73
74458;SHT31;62896;51.032;3.712;2023-05-08T17:29:51;17.8;73
74458;SHT31;62896;51.032;3.712;2023-05-08T17:33:11;17.8;73
74458;SHT31;62896;51.032;3.712;2023-05-08T17:36:31;17.6;75
74458;SHT31;62896;51.032;3.712;2023-05-08T17:39:51;17.6;75
74458;SHT31;62896;51.032;3.712;2023-05-08T17:43:11;17.6;75
74458;SHT31;62896;51.032;3.712;2023-05-08T17:46:31;17.3;76
74458;SHT31;62896;51.032;3.712;2023-05-08T17:49:51;17.3;76
74458;SHT31;62896;51.032;3.712;2023-05-08T17:53:11;17.3;76
74458;SHT31;62896;51.032;3.712;2023-05-08T17:56:31;17.1;77
74458;SHT31;62896;51.032;3.712;2023-05-08T17:59:51;17.1;77
74458;SHT31;62896;51.032;3.712;2023-05-08T18:03:11;17.1;77
74458;SHT31;62896;51.032;3.712;2023-05-08T18:06:31;16.9;78
74458;SHT31;62896;51.032;3.712;2023-05-08T18:09:51;16.9;78
74458;SHT31;62896;51.032;3.712;2023-05-08T18:13:11;16.9;78
74458;SHT31;62896;51.032;3.712;2023-05-08T18:16:31;16.8;79
74458;SHT31;62896;51.032;3.712;2023-05-08T18:19:51;16.8;79
74458;SHT31;62896;51.032;3.712;2023-05-08T18:23:11;16.8;79
74458;SHT31;62896;51.032;3.712;2023-05-08T18:26:31;16.8;79
74458;SHT31;62896;51.032;3.712;2023-05-08T18:29:51;16.8;79
74458;SHT31;62896;51.032;3.712;2023-05-08T18:33:11;16.8;79
74458;SHT31;62896;51.032;3.712;2023-05-08T18:36:31;16.6;80
74458;SHT31;62896;51.032;3.712;2023-05-08T18:39:51;16.6;80
74458;SHT31;62896;51.032;3.712;2023-05-08T18:43:11;16.6;80
74458;SHT31;62896;51.032;3.712;2023-05-08T18:46:31;16.5;80
74458;SHT31;62896;51.032;3.712;2023-05-08T18:49:51;16.5;80
74458;SHT31;62896;51.032;3.712;2023-05-08T18:53:11;16.5;80
74458;SHT31;62896;51.032;3.712;2023-05-08T18:56:31;16.5;80
74458;SHT31;62896;51.032;3.712;2023-05-08T18:59:51;16.5;80
74458;SHT31;62896;51.032;3.712;2023-05-08T19:03:11;16.5;80
74458;SHT31;62896;51.032;3.712;2023-05-08T19:06:31;16.4;81
74458;SHT31;62896;51.032;3.712;2023-05-08T19:09:52;16.4;81
74458;SHT31;62896;51.032;3.712;2023-05-08T19:13:11;16.4;81
74458;SHT31;62896;51.032;3.712;2023-05-08T19:16:31;16.3;81
74458;SHT31;62896;51.032;3.712;2023-05-08T19:19:51;16.3;81
74458;SHT31;62896;51.032;3.712;2023-05-08T19:23:11;16.3;81
74458;SHT31;62896;51.032;3.712;2023-05-08T19:26:31;16.2;81
74458;SHT31;62896;51.032;3.712;2023-05-08T19:29:51;16.2;81
74458;SHT31;62896;51.032;3.712;2023-05-08T19:33:11;16.2;81
74458;SHT31;62896;51.032;3.712;2023-05-08T19:36:31;16.1;82
74458;SHT31;62896;51.032;3.712;2023-05-08T19:39:51;16.1;82
74458;SHT31;62896;51.032;3.712;2023-05-08T19:43:11;16.1;82
74458;SHT31;62896;51.032;3.712;2023-05-08T19:46:31;16;82
74458;SHT31;62896;51.032;3.712;2023-05-08T19:49:51;16;82
74458;SHT31;62896;51.032;3.712;2023-05-08T19:53:11;16;82
74458;SHT31;62896;51.032;3.712;2023-05-08T19:56:31;15.9;83
74458;SHT31;62896;51.032;3.712;2023-05-08T19:59:51;15.9;83
74458;SHT31;62896;51.032;3.712;2023-05-08T20:03:11;15.9;83
74458;SHT31;62896;51.032;3.712;2023-05-08T20:06:31;15.8;83
74458;SHT31;62896;51.032;3.712;2023-05-08T20:09:51;15.8;83
74458;SHT31;62896;51.032;3.712;2023-05-08T20:13:11;15.8;83
74458;SHT31;62896;51.032;3.712;2023-05-08T20:16:31;15.8;83
74458;SHT31;62896;51.032;3.712;2023-05-08T20:19:51;15.8;83
74458;SHT31;62896;51.032;3.712;2023-05-08T20:23:11;15.8;83
74458;SHT31;62896;51.032;3.712;2023-05-08T20:26:31;15.8;83
74458;SHT31;62896;51.032;3.712;2023-05-08T20:29:51;15.8;83
74458;SHT31;62896;51.032;3.712;2023-05-08T20:33:11;15.8;83
74458;SHT31;62896;51.032;3.712;2023-05-08T20:36:31;15.7;84
74458;SHT31;62896;51.032;3.712;2023-05-08T20:39:51;15.7;84
74458;SHT31;62896;51.032;3.712;2023-05-08T20:43:11;15.7;84
74458;SHT31;62896;51.032;3.712;2023-05-08T20:46:31;15.6;84
74458;SHT31;62896;51.032;3.712;2023-05-08T20:49:51;15.6;84
74458;SHT31;62896;51.032;3.712;2023-05-08T20:53:11;15.6;84
74458;SHT31;62896;51.032;3.712;2023-05-08T20:56:31;15.6;84
74458;SHT31;62896;51.032;3.712;2023-05-08T20:59:51;15.6;84
74458;SHT31;62896;51.032;3.712;2023-05-08T21:03:11;15.6;84
74458;SHT31;62896;51.032;3.712;2023-05-08T21:06:31;15.5;84
74458;SHT31;62896;51.032;3.712;2023-05-08T21:09:51;15.5;84
74458;SHT31;62896;51.032;3.712;2023-05-08T21:13:11;15.5;84
74458;SHT31;62896;51.032;3.712;2023-05-08T21:16:31;15.5;85
74458;SHT31;62896;51.032;3.712;2023-05-08T21:19:51;15.5;85
74458;SHT31;62896;51.032;3.712;2023-05-08T21:23:11;15.5;85
74458;SHT31;62896;51.032;3.712;2023-05-08T21:26:31;15.4;85
74458;SHT31;62896;51.032;3.712;2023-05-08T21:29:51;15.4;85
74458;SHT31;62896;51.032;3.712;2023-05-08T21:33:11;15.4;85
74458;SHT31;62896;51.032;3.712;2023-05-08T21:36:31;15.4;85
74458;SHT31;62896;51.032;3.712;2023-05-08T21:39:51;15.4;85
74458;SHT31;62896;51.032;3.712;2023-05-08T21:43:11;15.4;85
74458;SHT31;62896;51.032;3.712;2023-05-08T21:46:31;15.3;85
74458;SHT31;62896;51.032;3.712;2023-05-08T21:49:51;15.3;85
74458;SHT31;62896;51.032;3.712;2023-05-08T21:53:11;15.3;85
74458;SHT31;62896;51.032;3.712;2023-05-08T21:56:31;15.2;85
74458;SHT31;62896;51.032;3.712;2023-05-08T21:59:51;15.2;85
74458;SHT31;62896;51.032;3.712;2023-05-08T22:03:11;15.2;85
74458;SHT31;62896;51.032;3.712;2023-05-08T22:06:31;15.2;85
74458;SHT31;62896;51.032;3.712;2023-05-08T22:09:51;15.2;85
74458;SHT31;62896;51.032;3.712;2023-05-08T22:13:11;15.2;85
74458;SHT31;62896;51.032;3.712;2023-05-08T22:16:31;15.1;85
74458;SHT31;62896;51.032;3.712;2023-05-08T22:19:51;15.1;85
74458;SHT31;62896;51.032;3.712;2023-05-08T22:23:11;15.1;85
74458;SHT31;62896;51.032;3.712;2023-05-08T22:26:31;15.1;85
74458;SHT31;62896;51.032;3.712;2023-05-08T22:29:51;15.1;85
74458;SHT31;62896;51.032;3.712;2023-05-08T22:33:11;15.1;85